Time;durP1;ratioP1;P1;durP2;ratioP2;P2;SDS_P1;SDS_P2;PMS_P1;PMS_P2;Temp;Humidity;BMP_temperature;BMP_pressure;BME280_temperature;BME280_humidity;BME280_pressure;Samples;Min_cycle;Max_cycle;Signal;HPM_P1;HPM_P2
2021/08/28 00:00:25;;;;;;;2.07;1.50;;;15.70;72.80;;;;;;5017270;28;20216;-75
2021/08/28 00:02:52;;;;;;;1.80;1.40;;;15.70;72.80;;;;;;5035718;28;20573;-75
2021/08/28 00:05:19;;;;;;;4.13;2.33;;;15.70;72.80;;;;;;5024047;28;20479;-75
2021/08/28 00:07:46;;;;;;;5.13;2.20;;;15.70;72.80;;;;;;5018360;28;20551;-75
2021/08/28 00:10:14;;;;;;;2.90;1.77;;;15.70;72.80;;;;;;5036330;28;20520;-75
2021/08/28 00:12:41;;;;;;;3.33;2.30;;;15.70;73.50;;;;;;5023426;28;20521;-75
2021/08/28 00:15:10;;;;;;;2.07;1.90;;;15.60;72.70;;;;;;5017080;28;20543;-75
2021/08/28 00:17:39;;;;;;;3.05;2.05;;;15.60;72.70;;;;;;5016789;28;20469;-75
2021/08/28 00:20:09;;;;;;;2.05;1.95;;;15.60;72.70;;;;;;5029498;28;20218;-75
2021/08/28 00:22:36;;;;;;;4.35;2.10;;;15.60;72.70;;;;;;5036513;28;20196;-75
2021/08/28 00:25:03;;;;;;;3.97;2.20;;;15.60;73.10;;;;;;5036172;28;20254;-75
2021/08/28 00:27:33;;;;;;;2.60;1.88;;;15.60;72.70;;;;;;5035337;28;20306;-76
2021/08/28 00:30:00;;;;;;;2.58;1.75;;;15.50;72.60;;;;;;5035957;28;20207;-75
2021/08/28 00:32:26;;;;;;;2.75;1.77;;;15.50;73.40;;;;;;5041473;28;20290;-75
2021/08/28 00:34:53;;;;;;;22.27;3.10;;;15.50;72.80;;;;;;5037954;28;20273;-75
2021/08/28 00:37:20;;;;;;;3.30;2.40;;;15.50;73.10;;;;;;5030681;28;20571;-75
2021/08/28 00:39:47;;;;;;;2.95;1.90;;;15.50;72.80;;;;;;5017100;28;20210;-75
2021/08/28 00:42:14;;;;;;;2.47;2.17;;;15.50;73.00;;;;;;5035674;28;20239;-75
2021/08/28 00:44:43;;;;;;;4.32;2.25;;;15.50;73.00;;;;;;5023588;28;20716;-75
2021/08/28 00:47:14;;;;;;;6.00;2.55;;;15.50;72.60;;;;;;5017301;28;20691;-75
2021/08/28 00:49:41;;;;;;;3.20;2.40;;;15.60;72.70;;;;;;5015452;28;20208;-75
2021/08/28 00:52:08;;;;;;;2.55;2.30;;;15.50;72.60;;;;;;5015278;28;20554;-75
2021/08/28 00:54:34;;;;;;;1.80;1.70;;;15.50;72.60;;;;;;5018688;28;20201;-75
2021/08/28 00:57:02;;;;;;;3.63;2.50;;;15.50;72.80;;;;;;5035543;28;20490;-74
2021/08/28 00:59:29;;;;;;;3.97;2.40;;;15.60;72.70;;;;;;5030384;28;20458;-75
2021/08/28 01:01:58;;;;;;;4.00;2.53;;;15.60;72.70;;;;;;5028523;28;20445;-75
2021/08/28 01:04:26;;;;;;;3.63;2.63;;;15.60;72.80;;;;;;5014645;28;21003;-75
2021/08/28 01:07:04;;;;;;;5.40;2.53;;;15.60;72.70;;;;;;5015012;28;20521;-75
2021/08/28 01:09:34;;;;;;;5.03;2.83;;;15.60;73.10;;;;;;5015665;28;20430;-75
2021/08/28 01:12:05;;;;;;;2.95;2.65;;;15.60;72.70;;;;;;5015546;28;20516;-75
2021/08/28 01:14:34;;;;;;;3.63;2.63;;;15.70;72.80;;;;;;5034136;28;20203;-75
2021/08/28 01:17:06;;;;;;;4.87;2.70;;;15.70;72.80;;;;;;5022453;28;20735;-75
2021/08/28 01:19:45;;;;;;;3.17;2.90;;;15.70;72.80;;;;;;5018576;28;20451;-75
2021/08/28 01:22:17;;;;;;;2.60;2.22;;;15.70;72.80;;;;;;5034139;28;20504;-75
2021/08/28 01:24:47;;;;;;;2.50;2.30;;;15.70;72.80;;;;;;5034514;28;20358;-75
2021/08/28 01:27:19;;;;;;;3.07;2.50;;;15.70;73.40;;;;;;5033839;28;20207;-75
2021/08/28 01:29:52;;;;;;;3.23;2.80;;;15.70;73.10;;;;;;5026786;28;20550;-75
2021/08/28 01:32:20;;;;;;;2.60;2.40;;;15.70;72.80;;;;;;5014420;28;20459;-75
2021/08/28 01:34:48;;;;;;;3.03;2.80;;;15.70;72.80;;;;;;5014706;28;20502;-76
2021/08/28 01:37:16;;;;;;;3.70;2.37;;;15.70;72.80;;;;;;5024551;28;20495;-76
2021/08/28 01:39:44;;;;;;;2.93;2.57;;;15.70;72.80;;;;;;5034637;28;20498;-76
2021/08/28 01:42:12;;;;;;;3.63;2.93;;;15.70;72.80;;;;;;5033711;28;20497;-76
2021/08/28 01:44:40;;;;;;;3.60;3.30;;;15.70;72.80;;;;;;5022197;28;20519;-76
2021/08/28 01:47:09;;;;;;;3.50;3.00;;;15.70;72.80;;;;;;5018286;28;20870;-75
2021/08/28 01:49:36;;;;;;;3.60;3.30;;;15.70;72.80;;;;;;5034893;28;20687;-76
2021/08/28 01:52:04;;;;;;;5.43;2.90;;;15.70;72.80;;;;;;5024402;28;20473;-75
2021/08/28 01:54:31;;;;;;;3.60;3.30;;;15.80;72.90;;;;;;5043790;28;20429;-76
2021/08/28 01:56:58;;;;;;;4.37;3.30;;;15.80;72.90;;;;;;5047753;28;20428;-75
2021/08/28 01:59:26;;;;;;;3.43;2.90;;;15.80;72.90;;;;;;5036601;28;20483;-75
2021/08/28 02:01:53;;;;;;;4.00;2.70;;;15.80;73.60;;;;;;5046925;28;20420;-76
2021/08/28 02:04:21;;;;;;;2.87;2.57;;;15.80;74.20;;;;;;5057409;28;20505;-76
2021/08/28 02:06:53;;;;;;;3.80;2.20;;;15.80;75.00;;;;;;4995390;28;20555;-75
2021/08/28 02:09:25;;;;;;;3.13;2.70;;;15.80;75.60;;;;;;5016650;28;20460;-75
2021/08/28 02:11:58;;;;;;;2.67;2.47;;;15.80;75.70;;;;;;5036702;28;20563;-75
2021/08/28 02:14:30;;;;;;;3.53;2.33;;;15.80;75.60;;;;;;5034840;28;20439;-75
2021/08/28 02:16:59;;;;;;;9.90;2.60;;;15.80;75.80;;;;;;5033146;28;20436;-75
2021/08/28 02:19:32;;;;;;;2.63;2.40;;;15.80;76.00;;;;;;5027575;28;20496;-76
2021/08/28 02:22:02;;;;;;;1.83;1.73;;;15.90;77.30;;;;;;5013915;28;20838;-76
2021/08/28 02:24:32;;;;;;;4.60;2.50;;;15.80;77.20;;;;;;5032429;28;20266;-75
2021/08/28 02:27:06;;;;;;;2.25;2.05;;;15.80;78.70;;;;;;5022077;28;20490;-74
2021/08/28 02:29:35;;;;;;;2.45;2.30;;;15.80;80.60;;;;;;5014944;28;20247;-74
2021/08/28 02:32:03;;;;;;;2.90;2.60;;;15.70;82.10;;;;;;5032858;28;20647;-75
2021/08/28 02:34:34;;;;;;;3.37;2.63;;;15.70;81.50;;;;;;5031367;28;20549;-75
2021/08/28 02:37:03;;;;;;;3.00;2.70;;;15.60;80.60;;;;;;5032248;28;20965;-75
2021/08/28 02:39:32;;;;;;;6.30;2.53;;;15.70;80.40;;;;;;5032479;28;20898;-75
2021/08/28 02:42:01;;;;;;;2.93;2.63;;;15.80;81.30;;;;;;5032641;28;20482;-75
2021/08/28 02:44:29;;;;;;;6.37;3.10;;;15.70;81.50;;;;;;5022639;28;20465;-75
2021/08/28 02:46:57;;;;;;;3.27;2.50;;;15.70;80.60;;;;;;5013946;28;20531;-75
2021/08/28 02:49:26;;;;;;;4.30;3.20;;;15.70;79.50;;;;;;4994092;28;21046;-75
2021/08/28 02:51:54;;;;;;;2.80;2.60;;;15.70;79.30;;;;;;5004582;28;20488;-75
2021/08/28 02:54:22;;;;;;;5.60;3.37;;;15.70;79.40;;;;;;5014429;28;20489;-76
2021/08/28 02:56:51;;;;;;;4.13;3.50;;;15.60;79.70;;;;;;5013093;28;20551;-76
2021/08/28 02:59:19;;;;;;;4.10;3.57;;;15.60;79.70;;;;;;5026424;28;20447;-76
2021/08/28 03:01:47;;;;;;;3.45;3.15;;;15.60;79.80;;;;;;5036087;28;20486;-75
2021/08/28 03:04:18;;;;;;;4.03;3.10;;;15.60;80.70;;;;;;5019177;28;20294;-75
2021/08/28 03:06:46;;;;;;;3.23;2.93;;;15.60;80.50;;;;;;5014980;28;20474;-75
2021/08/28 03:09:17;;;;;;;3.87;2.67;;;15.60;80.50;;;;;;5013129;28;20426;-75
2021/08/28 03:11:44;;;;;;;4.17;3.03;;;15.70;81.50;;;;;;5012923;28;20557;-76
2021/08/28 03:14:11;;;;;;;3.40;2.97;;;15.70;81.80;;;;;;5013552;28;20545;-76
2021/08/28 03:16:42;;;;;;;4.20;3.03;;;15.60;82.90;;;;;;5016834;28;20577;-76
2021/08/28 03:19:10;;;;;;;4.10;3.33;;;15.60;83.40;;;;;;5018190;28;20493;-75
2021/08/28 03:21:39;;;;;;;3.35;2.88;;;15.60;84.30;;;;;;5036491;28;20214;-75
2021/08/28 03:24:07;;;;;;;3.33;3.13;;;15.60;84.40;;;;;;5035936;28;20905;-75
2021/08/28 03:26:36;;;;;;;5.13;3.50;;;15.50;84.20;;;;;;5031834;28;20222;-74
2021/08/28 03:29:04;;;;;;;5.70;3.17;;;15.50;84.30;;;;;;5016263;28;20211;-75
2021/08/28 03:31:31;;;;;;;3.28;2.92;;;15.50;84.10;;;;;;5016562;28;20541;-75
2021/08/28 03:34:01;;;;;;;3.53;3.22;;;15.50;84.10;;;;;;5017090;28;20258;-75
2021/08/28 03:36:28;;;;;;;3.60;3.30;;;15.50;84.40;;;;;;5016398;28;20234;-75
2021/08/28 03:38:55;;;;;;;3.45;3.15;;;15.50;84.40;;;;;;5035053;28;20464;-75
2021/08/28 03:41:22;;;;;;;4.72;3.35;;;15.40;85.00;;;;;;5035726;28;20209;-75
2021/08/28 03:43:50;;;;;;;8.23;3.75;;;15.40;85.40;;;;;;5036085;28;20680;-75
2021/08/28 03:46:17;;;;;;;3.97;3.67;;;15.40;85.50;;;;;;5013507;28;20224;-74
2021/08/28 03:48:44;;;;;;;3.78;3.47;;;15.40;86.40;;;;;;5016789;28;20494;-75
2021/08/28 03:51:11;;;;;;;5.93;3.30;;;15.40;86.80;;;;;;5016618;28;20711;-75
2021/08/28 03:53:38;;;;;;;7.80;3.40;;;15.40;87.60;;;;;;5017391;28;20482;-76
2021/08/28 03:56:05;;;;;;;3.60;3.30;;;15.40;88.00;;;;;;5017187;28;20467;-75
2021/08/28 03:58:34;;;;;;;3.10;2.80;;;15.40;88.40;;;;;;5021782;28;20238;-75
2021/08/28 04:01:02;;;;;;;6.28;3.50;;;15.40;89.20;;;;;;5037292;28;20454;-76
2021/08/28 04:03:29;;;;;;;6.30;3.27;;;15.40;88.70;;;;;;5035214;28;20199;-76
2021/08/28 04:05:56;;;;;;;3.10;2.90;;;15.40;88.60;;;;;;5021400;28;21080;-75
2021/08/28 04:08:23;;;;;;;4.47;4.10;;;15.40;89.60;;;;;;5019572;28;20428;-75
2021/08/28 04:10:50;;;;;;;4.65;4.20;;;15.40;88.60;;;;;;5035857;28;20473;-75
2021/08/28 04:13:17;;;;;;;4.63;3.80;;;15.40;87.20;;;;;;5035068;28;20203;-76
2021/08/28 04:15:43;;;;;;;4.47;4.07;;;15.40;86.70;;;;;;5035255;28;20539;-75
2021/08/28 04:18:12;;;;;;;5.65;4.00;;;15.40;86.30;;;;;;5035671;28;20248;-75
2021/08/28 04:20:38;;;;;;;7.35;4.40;;;15.30;86.30;;;;;;5019157;28;20568;-75
2021/08/28 04:23:05;;;;;;;5.13;4.70;;;15.40;86.50;;;;;;5016567;28;20206;-75
2021/08/28 04:25:32;;;;;;;8.52;4.75;;;15.40;85.50;;;;;;5016577;28;20505;-75
2021/08/28 04:28:00;;;;;;;6.35;5.20;;;15.40;84.80;;;;;;5032640;28;20208;-76
2021/08/28 04:30:28;;;;;;;5.78;4.60;;;15.40;84.50;;;;;;5033092;28;20671;-75
2021/08/28 04:32:55;;;;;;;4.95;4.55;;;15.30;84.10;;;;;;5034386;28;20207;-74
2021/08/28 04:35:23;;;;;;;5.25;4.75;;;15.40;83.90;;;;;;5015726;28;20307;-74
2021/08/28 04:37:50;;;;;;;6.22;4.85;;;15.30;83.90;;;;;;5019938;28;20295;-75
2021/08/28 04:40:17;;;;;;;6.30;4.70;;;15.40;83.80;;;;;;5020090;28;20290;-75
2021/08/28 04:42:44;;;;;;;4.90;4.50;;;15.40;82.10;;;;;;5016428;28;20235;-75
2021/08/28 04:45:12;;;;;;;7.43;5.28;;;15.40;81.70;;;;;;5027700;28;20287;-76
2021/08/28 04:47:39;;;;;;;5.70;5.15;;;15.30;81.50;;;;;;5039568;28;20198;-75
2021/08/28 04:50:06;;;;;;;6.45;5.32;;;15.30;82.10;;;;;;5038580;28;20211;-75
2021/08/28 04:52:34;;;;;;;6.03;4.15;;;15.30;82.00;;;;;;5042002;28;20294;-75
2021/08/28 04:55:01;;;;;;;7.10;4.95;;;15.20;82.20;;;;;;5035389;28;20758;-75
2021/08/28 04:57:28;;;;;;;7.57;5.70;;;15.20;82.20;;;;;;5036299;28;20239;-75
2021/08/28 04:59:55;;;;;;;5.95;5.10;;;15.20;82.60;;;;;;5036301;28;20759;-75
2021/08/28 05:02:22;;;;;;;7.78;5.47;;;15.20;82.20;;;;;;5026810;28;20200;-75
2021/08/28 05:04:49;;;;;;;5.63;5.03;;;15.20;82.60;;;;;;5020286;28;20295;-75
2021/08/28 05:07:16;;;;;;;6.32;5.63;;;15.20;83.20;;;;;;5039343;28;20194;-75
2021/08/28 05:09:44;;;;;;;7.97;5.30;;;15.20;83.20;;;;;;5033038;28;20235;-74
2021/08/28 05:12:11;;;;;;;5.70;5.20;;;15.20;83.40;;;;;;5030003;28;20496;-74
2021/08/28 05:14:39;;;;;;;6.23;5.63;;;15.20;82.20;;;;;;5050766;28;20222;-75
2021/08/28 05:17:07;;;;;;;6.00;5.47;;;15.30;81.60;;;;;;5035470;28;20463;-75
2021/08/28 05:19:34;;;;;;;7.90;5.40;;;15.40;81.20;;;;;;5014738;28;20544;-75
2021/08/28 05:22:00;;;;;;;6.72;4.97;;;15.40;81.20;;;;;;5014718;28;20459;-75
2021/08/28 05:24:29;;;;;;;10.45;5.90;;;15.40;80.20;;;;;;5015435;28;20239;-75
2021/08/28 05:26:57;;;;;;;6.60;5.53;;;15.40;79.70;;;;;;5014362;28;20700;-75
2021/08/28 05:29:24;;;;;;;8.32;5.60;;;15.40;80.30;;;;;;5015533;28;20558;-74
2021/08/28 05:31:50;;;;;;;5.93;5.30;;;15.40;79.80;;;;;;5032158;28;20289;-74
2021/08/28 05:34:17;;;;;;;6.70;6.10;;;15.40;80.40;;;;;;5025062;28;20200;-75
2021/08/28 05:36:44;;;;;;;6.33;5.83;;;15.40;80.10;;;;;;5013388;28;20562;-75
2021/08/28 05:39:11;;;;;;;7.27;6.40;;;15.50;80.10;;;;;;5014199;28;20545;-75
2021/08/28 05:41:38;;;;;;;6.05;5.50;;;15.50;78.90;;;;;;5014469;28;20937;-75
2021/08/28 05:44:07;;;;;;;8.80;6.03;;;15.50;78.80;;;;;;5015283;28;20202;-75
2021/08/28 05:46:33;;;;;;;7.93;6.18;;;15.50;78.40;;;;;;5013939;28;20586;-75
2021/08/28 05:49:00;;;;;;;5.87;5.30;;;15.60;78.30;;;;;;5026811;28;20231;-75
2021/08/28 05:51:27;;;;;;;6.05;5.25;;;15.70;77.80;;;;;;5029975;28;20530;-75
2021/08/28 05:53:54;;;;;;;5.50;5.00;;;15.60;77.00;;;;;;5014142;28;20210;-76
2021/08/28 05:56:21;;;;;;;6.83;5.97;;;15.70;77.10;;;;;;5016562;28;20505;-76
2021/08/28 05:58:48;;;;;;;6.50;5.80;;;15.80;76.40;;;;;;5014102;28;20457;-76
2021/08/28 06:01:16;;;;;;;6.17;5.67;;;15.80;76.30;;;;;;5016146;28;20891;-76
2021/08/28 06:03:43;;;;;;;6.53;5.80;;;15.80;76.40;;;;;;5031226;28;20439;-76
2021/08/28 06:06:10;;;;;;;7.80;6.70;;;15.80;76.60;;;;;;5032254;28;20498;-75
2021/08/28 06:08:36;;;;;;;6.90;5.87;;;15.80;76.10;;;;;;5034564;28;20557;-76
2021/08/28 06:11:03;;;;;;;6.20;5.63;;;15.70;76.80;;;;;;5034641;28;20878;-75
2021/08/28 06:13:30;;;;;;;6.73;5.90;;;15.80;77.30;;;;;;5033923;28;20435;-75
2021/08/28 06:15:57;;;;;;;9.10;6.30;;;15.80;77.40;;;;;;5037663;28;20520;-75
2021/08/28 06:18:25;;;;;;;6.50;5.80;;;15.70;78.20;;;;;;5037581;28;20545;-75
2021/08/28 06:20:52;;;;;;;6.23;5.70;;;15.80;78.30;;;;;;5029265;28;20486;-75
2021/08/28 06:23:19;;;;;;;7.00;6.07;;;15.90;78.30;;;;;;5014147;28;20478;-75
2021/08/28 06:25:46;;;;;;;7.00;6.30;;;16.10;78.20;;;;;;5017947;28;20700;-75
2021/08/28 06:28:13;;;;;;;6.87;6.17;;;16.30;75.20;;;;;;5034250;28;20471;-76
2021/08/28 06:30:40;;;;;;;8.23;6.43;;;16.60;73.60;;;;;;5030691;28;20544;-75
2021/08/28 06:33:07;;;;;;;7.03;6.43;;;16.70;71.40;;;;;;5032453;28;20458;-75
2021/08/28 06:35:35;;;;;;;8.43;6.70;;;16.80;70.80;;;;;;5031702;28;20534;-74
2021/08/28 06:38:02;;;;;;;7.93;6.83;;;16.70;71.20;;;;;;5012551;28;20538;-75
2021/08/28 06:40:29;;;;;;;8.20;7.40;;;16.70;71.50;;;;;;5014106;28;20546;-75
2021/08/28 06:42:56;;;;;;;7.43;6.53;;;16.70;71.10;;;;;;5031361;28;20497;-76
2021/08/28 06:45:23;;;;;;;7.23;6.57;;;16.70;71.30;;;;;;5012460;28;20586;-75
2021/08/28 06:47:49;;;;;;;7.57;6.80;;;16.70;70.80;;;;;;5012723;28;20469;-75
2021/08/28 06:50:17;;;;;;;8.60;7.03;;;16.70;71.70;;;;;;5012919;28;20541;-75
2021/08/28 06:52:45;;;;;;;7.73;6.03;;;16.70;71.90;;;;;;5015263;28;20477;-76
2021/08/28 06:55:12;;;;;;;8.83;7.20;;;16.80;71.70;;;;;;5030919;28;20651;-75
2021/08/28 06:57:39;;;;;;;7.73;6.80;;;16.70;71.00;;;;;;5033175;28;20512;-75
2021/08/28 07:00:08;;;;;;;8.33;7.53;;;16.70;71.90;;;;;;5018284;28;20993;-75
2021/08/28 07:02:35;;;;;;;7.27;6.57;;;16.90;71.50;;;;;;5031890;28;20488;-75
2021/08/28 07:05:02;;;;;;;6.87;6.10;;;17.00;70.10;;;;;;5034148;28;20558;-76
2021/08/28 07:07:30;;;;;;;8.57;7.77;;;17.10;69.90;;;;;;5017794;28;20563;-75
2021/08/28 07:09:58;;;;;;;7.53;6.83;;;17.20;68.20;;;;;;5015166;28;20464;-75
2021/08/28 07:12:25;;;;;;;10.40;7.33;;;17.20;68.10;;;;;;5036459;28;20907;-75
2021/08/28 07:14:52;;;;;;;11.03;7.93;;;17.10;68.50;;;;;;5051032;28;20510;-76
2021/08/28 07:17:19;;;;;;;7.13;6.53;;;17.20;67.30;;;;;;5041207;28;20456;-75
2021/08/28 07:19:46;;;;;;;7.80;7.03;;;17.40;67.50;;;;;;5035921;28;20531;-75
2021/08/28 07:22:13;;;;;;;10.43;8.03;;;17.60;65.60;;;;;;5020234;28;20435;-75
2021/08/28 07:24:40;;;;;;;8.47;7.57;;;17.70;64.60;;;;;;5017977;28;20457;-75
2021/08/28 07:27:08;;;;;;;9.33;8.43;;;17.60;65.60;;;;;;5018990;28;20825;-76
2021/08/28 07:29:35;;;;;;;7.40;6.13;;;17.30;65.30;;;;;;5022291;28;20460;-76
2021/08/28 07:32:02;;;;;;;7.73;6.93;;;17.40;65.40;;;;;;5032146;28;20491;-76
2021/08/28 07:34:35;;;;;;;7.63;6.80;;;17.40;65.40;;;;;;5037236;28;20527;-76
2021/08/28 07:37:02;;;;;;;7.77;6.17;;;17.10;66.70;;;;;;5021424;28;20456;-77
2021/08/28 07:39:29;;;;;;;6.57;5.87;;;17.30;67.80;;;;;;5022603;28;20559;-75
2021/08/28 07:41:59;;;;;;;6.03;5.47;;;17.60;64.00;;;;;;5036496;28;20486;-76
2021/08/28 07:44:27;;;;;;;6.63;6.03;;;17.80;62.80;;;;;;5028865;28;20449;-76
2021/08/28 07:46:54;;;;;;;6.03;5.53;;;18.20;60.90;;;;;;5016327;28;20555;-76
2021/08/28 07:49:22;;;;;;;6.77;6.17;;;18.20;59.80;;;;;;5022361;28;20463;-76
2021/08/28 07:51:49;;;;;;;5.20;4.70;;;18.10;59.20;;;;;;5036746;28;20475;-76
2021/08/28 07:54:16;;;;;;;5.13;4.67;;;18.20;59.20;;;;;;5035285;28;20821;-74
2021/08/28 07:56:43;;;;;;;5.10;4.27;;;18.10;58.90;;;;;;5017187;28;20504;-76
2021/08/28 07:59:10;;;;;;;6.20;5.37;;;18.00;59.40;;;;;;5019221;28;20890;-76
2021/08/28 08:01:38;;;;;;;4.83;4.37;;;17.70;60.70;;;;;;5018702;28;20489;-76
2021/08/28 08:04:05;;;;;;;4.97;4.07;;;18.10;59.10;;;;;;5018395;28;20503;-76
2021/08/28 08:06:32;;;;;;;4.33;3.93;;;18.10;56.80;;;;;;5018746;28;20537;-76
2021/08/28 08:08:59;;;;;;;4.33;4.03;;;18.10;57.70;;;;;;5019335;28;20491;-76
2021/08/28 08:11:26;;;;;;;4.40;4.10;;;17.60;59.50;;;;;;5038660;28;20439;-77
2021/08/28 08:13:53;;;;;;;5.63;4.80;;;17.60;60.10;;;;;;5038036;28;20544;-76
2021/08/28 08:16:20;;;;;;;4.30;3.90;;;17.50;59.80;;;;;;5030148;28;20508;-75
2021/08/28 08:18:48;;;;;;;4.63;3.90;;;17.90;57.30;;;;;;5038505;28;20450;-77
2021/08/28 08:21:15;;;;;;;4.80;3.87;;;18.40;55.80;;;;;;5052190;28;20426;-76
2021/08/28 08:23:42;;;;;;;4.13;3.73;;;18.00;56.70;;;;;;5045992;28;20432;-76
2021/08/28 08:26:09;;;;;;;5.07;4.60;;;18.10;57.30;;;;;;5039505;28;20452;-75
2021/08/28 08:28:36;;;;;;;4.70;3.97;;;18.60;56.20;;;;;;5025751;28;20954;-76
2021/08/28 08:31:03;;;;;;;5.63;5.13;;;18.60;53.90;;;;;;5027228;28;20519;-75
2021/08/28 08:33:30;;;;;;;6.57;4.90;;;17.60;58.10;;;;;;5036596;28;20422;-76
2021/08/28 08:35:59;;;;;;;4.93;4.50;;;17.80;58.90;;;;;;5019188;28;20680;-76
2021/08/28 08:38:26;;;;;;;5.53;5.00;;;18.00;58.10;;;;;;5016227;28;20490;-76
2021/08/28 08:40:53;;;;;;;5.67;5.17;;;17.90;58.80;;;;;;5016483;28;20523;-76
2021/08/28 08:43:20;;;;;;;6.53;4.93;;;18.10;57.60;;;;;;5017078;28;20466;-75
2021/08/28 08:45:47;;;;;;;5.20;4.80;;;18.10;56.80;;;;;;5016989;28;20491;-74
2021/08/28 08:48:15;;;;;;;6.97;4.83;;;18.10;57.10;;;;;;5015457;28;20470;-75
2021/08/28 08:50:42;;;;;;;5.03;4.53;;;18.00;56.70;;;;;;5013416;28;20529;-76
2021/08/28 08:53:15;;;;;;;4.83;4.43;;;18.00;56.70;;;;;;5021171;28;20803;-76
2021/08/28 08:55:42;;;;;;;5.87;4.00;;;18.00;57.00;;;;;;5032825;28;20446;-75
2021/08/28 08:58:09;;;;;;;5.63;5.00;;;17.80;58.20;;;;;;5021701;28;20468;-76
2021/08/28 09:00:37;;;;;;;6.03;5.53;;;17.50;60.40;;;;;;5018268;28;20441;-76
2021/08/28 09:03:04;;;;;;;8.00;4.80;;;17.50;60.50;;;;;;5016083;28;20514;-76
2021/08/28 09:05:30;;;;;;;5.80;5.30;;;17.50;60.60;;;;;;5015793;28;20535;-75
2021/08/28 09:07:57;;;;;;;6.33;5.40;;;17.70;61.60;;;;;;5016479;28;20987;-77
2021/08/28 09:10:26;;;;;;;6.07;5.50;;;17.50;63.80;;;;;;5034588;28;20456;-75
2021/08/28 09:12:52;;;;;;;6.30;5.80;;;17.80;65.80;;;;;;5038203;28;20485;-76
2021/08/28 09:15:19;;;;;;;6.50;5.83;;;18.10;63.70;;;;;;5039196;28;20595;-76
2021/08/28 09:17:59;;;;;;;5.63;5.13;;;18.40;60.30;;;;;;5040228;28;20452;-76
2021/08/28 09:20:26;;;;;;;5.57;5.07;;;18.30;59.00;;;;;;5047544;28;20439;-77
2021/08/28 09:23:04;;;;;;;5.70;5.13;;;18.40;59.70;;;;;;5041227;28;20451;-76
2021/08/28 09:25:33;;;;;;;5.70;5.30;;;18.40;59.70;;;;;;5039307;28;20479;-77
2021/08/28 09:28:00;;;;;;;6.97;5.50;;;18.30;58.80;;;;;;5036038;28;21004;-75
2021/08/28 09:30:30;;;;;;;6.93;6.23;;;18.10;60.20;;;;;;5038805;28;20483;-76
2021/08/28 09:32:59;;;;;;;6.60;5.87;;;17.80;61.90;;;;;;5034710;28;20483;-76
2021/08/28 09:35:28;;;;;;;7.07;6.47;;;17.70;64.80;;;;;;5033979;28;20984;-76
2021/08/28 09:37:57;;;;;;;8.17;6.70;;;17.60;65.60;;;;;;5034211;28;20519;-76
2021/08/28 09:40:29;;;;;;;7.60;6.30;;;17.50;67.70;;;;;;5034100;28;20424;-75
2021/08/28 09:43:00;;;;;;;9.03;6.50;;;17.30;70.10;;;;;;5034016;28;21006;-76
2021/08/28 09:45:27;;;;;;;6.80;6.20;;;17.10;72.10;;;;;;5034294;28;20549;-75
2021/08/28 09:47:56;;;;;;;6.60;5.93;;;17.00;74.00;;;;;;5034014;28;20595;-75
2021/08/28 09:50:32;;;;;;;9.33;5.60;;;16.90;75.20;;;;;;5033561;28;20494;-75
2021/08/28 09:53:08;;;;;;;5.83;5.33;;;16.70;76.30;;;;;;5033796;28;20519;-76
2021/08/28 09:55:36;;;;;;;5.00;4.60;;;16.70;77.60;;;;;;5034162;28;20482;-76
2021/08/28 09:58:05;;;;;;;5.50;5.10;;;16.70;77.40;;;;;;5034131;28;20809;-75
2021/08/28 10:00:33;;;;;;;5.47;4.97;;;16.50;79.00;;;;;;5034407;28;20549;-75
2021/08/28 10:03:05;;;;;;;6.57;5.70;;;16.20;81.90;;;;;;5034695;28;20468;-75
2021/08/28 10:05:35;;;;;;;5.97;5.43;;;16.00;89.50;;;;;;5034159;28;20481;-76
2021/08/28 10:08:03;;;;;;;5.53;5.03;;;15.80;91.50;;;;;;5033715;28;20707;-76
2021/08/28 10:10:32;;;;;;;6.23;5.50;;;15.70;92.40;;;;;;5033995;28;20297;-76
2021/08/28 10:13:02;;;;;;;5.13;4.55;;;15.70;93.60;;;;;;5038797;28;20949;-75
2021/08/28 10:15:37;;;;;;;5.88;5.38;;;15.70;93.10;;;;;;5055456;22;20327;-84
2021/08/28 10:18:07;;;;;;;7.18;6.50;;;15.70;92.50;;;;;;5019963;28;20610;-84
2021/08/28 10:20:35;;;;;;;6.18;5.55;;;15.80;93.10;;;;;;5018705;28;20226;-83
2021/08/28 10:23:05;;;;;;;6.07;5.17;;;15.80;92.40;;;;;;5019171;28;20243;-83
2021/08/28 10:25:33;;;;;;;6.47;5.87;;;15.80;92.20;;;;;;5019622;28;20506;-85
2021/08/28 10:28:01;;;;;;;6.60;6.00;;;15.90;92.40;;;;;;5020639;28;20478;-82
2021/08/28 10:30:30;;;;;;;7.17;6.50;;;16.00;91.60;;;;;;5018971;28;20208;-84
2021/08/28 10:32:57;;;;;;;6.60;6.00;;;16.10;90.70;;;;;;5020241;28;20447;-82
2021/08/28 10:35:24;;;;;;;8.43;6.40;;;16.30;90.20;;;;;;5021943;28;20450;-84
2021/08/28 10:37:51;;;;;;;6.73;6.00;;;16.40;90.80;;;;;;5020798;28;20486;-82
2021/08/28 10:40:21;;;;;;;8.03;7.13;;;16.50;90.20;;;;;;5039202;28;20460;-83
2021/08/28 10:42:50;;;;;;;7.53;6.93;;;16.60;90.30;;;;;;5036184;28;20437;-86
2021/08/28 10:45:24;;;;;;;8.40;7.60;;;16.70;89.50;;;;;;5049530;28;20446;-84
2021/08/28 10:47:57;;;;;;;7.43;6.80;;;16.80;86.80;;;;;;5056022;28;20477;-84
2021/08/28 10:50:24;;;;;;;8.13;7.33;;;16.90;87.80;;;;;;5041767;28;20441;-85
2021/08/28 10:52:51;;;;;;;7.60;6.90;;;17.20;86.40;;;;;;5035958;28;20446;-83
2021/08/28 10:55:18;;;;;;;6.60;6.10;;;17.40;83.00;;;;;;5037375;28;20485;-84
2021/08/28 10:57:46;;;;;;;7.33;5.97;;;17.60;83.20;;;;;;5036462;28;20824;-82
2021/08/28 11:00:16;;;;;;;5.90;5.40;;;17.90;78.80;;;;;;5022078;28;20546;-82
2021/08/28 11:02:56;;;;;;;6.40;5.63;;;18.30;75.20;;;;;;5028957;28;20436;-82
2021/08/28 11:05:25;;;;;;;6.07;5.47;;;18.60;72.50;;;;;;5045794;28;20467;-82
2021/08/28 11:07:52;;;;;;;5.80;5.23;;;18.90;70.20;;;;;;5024417;28;20509;-82
2021/08/28 11:10:24;;;;;;;5.00;4.53;;;19.00;67.30;;;;;;5024297;28;20470;-82
2021/08/28 11:12:57;;;;;;;6.13;5.43;;;19.20;64.50;;;;;;5005410;28;20462;-82
2021/08/28 11:15:52;;;;;;;7.27;6.30;;;19.20;65.20;;;;;;5011277;28;20440;-83
2021/08/28 11:18:43;;;;;;;5.93;5.43;;;19.40;62.80;;;;;;5016976;28;20411;-84
2021/08/28 11:21:11;;;;;;;6.70;6.03;;;19.40;61.70;;;;;;5021419;28;20600;-83
2021/08/28 11:23:42;;;;;;;6.17;5.57;;;19.20;60.00;;;;;;5041595;28;20454;-84
2021/08/28 11:26:09;;;;;;;6.40;5.80;;;19.20;61.10;;;;;;5049133;28;20466;-85
2021/08/28 11:28:39;;;;;;;6.43;5.83;;;19.20;61.80;;;;;;5055928;28;20429;-84
2021/08/28 11:31:06;;;;;;;5.00;4.60;;;19.30;63.10;;;;;;5046482;28;20503;-83
2021/08/28 11:33:34;;;;;;;6.53;4.43;;;19.40;62.70;;;;;;5036496;28;20471;-83
2021/08/28 11:36:05;;;;;;;4.43;4.10;;;19.50;61.10;;;;;;5027073;28;20507;-82
2021/08/28 11:38:48;;;;;;;4.90;4.50;;;19.60;61.20;;;;;;5041559;28;20479;-85
2021/08/28 11:41:19;;;;;;;5.53;4.33;;;19.60;59.30;;;;;;5043055;28;20425;-85
2021/08/28 11:43:47;;;;;;;5.37;4.87;;;19.50;60.80;;;;;;5041183;28;20469;-87
2021/08/28 11:46:16;;;;;;;4.80;4.40;;;18.90;63.80;;;;;;5040764;28;20493;-86
2021/08/28 11:48:46;;;;;;;5.03;4.60;;;18.80;66.70;;;;;;5040925;28;20465;-86
2021/08/28 11:51:17;;;;;;;5.20;4.70;;;18.70;64.70;;;;;;5032305;28;20471;-84
2021/08/28 11:53:46;;;;;;;8.43;5.17;;;18.50;64.80;;;;;;5029235;28;20900;-84
2021/08/28 11:56:15;;;;;;;5.50;5.07;;;18.10;64.60;;;;;;5027979;28;20475;-85
2021/08/28 11:58:54;;;;;;;6.70;4.70;;;17.80;68.80;;;;;;5029468;28;20512;-84
2021/08/28 12:01:41;;;;;;;5.57;5.13;;;17.80;69.70;;;;;;5031617;28;20563;-83
2021/08/28 12:04:10;;;;;;;4.80;4.40;;;17.80;71.80;;;;;;5036543;28;20542;-85
2021/08/28 12:06:40;;;;;;;4.90;4.57;;;17.60;70.50;;;;;;5028772;28;20476;-84
2021/08/28 12:09:09;;;;;;;4.53;4.13;;;17.40;74.40;;;;;;5026541;28;20837;-84
2021/08/28 12:11:37;;;;;;;5.37;4.33;;;17.30;77.10;;;;;;5026038;28;20434;-86
2021/08/28 12:14:05;;;;;;;5.47;4.97;;;17.30;76.90;;;;;;5029201;28;20459;-85
2021/08/28 12:16:34;;;;;;;4.70;4.30;;;17.10;77.30;;;;;;5032995;28;20505;-85
2021/08/28 12:19:06;;;;;;;4.60;3.90;;;17.10;76.50;;;;;;5039355;28;20494;-85
2021/08/28 12:21:35;;;;;;;4.43;4.03;;;17.00;74.80;;;;;;5021893;28;20876;-84
2021/08/28 12:24:15;;;;;;;5.53;5.03;;;17.00;75.60;;;;;;5023133;28;20468;-83
2021/08/28 12:26:43;;;;;;;6.23;4.77;;;16.80;78.60;;;;;;5032193;28;20522;-84
2021/08/28 12:29:10;;;;;;;7.30;5.40;;;16.90;82.00;;;;;;5021754;28;20531;-83
2021/08/28 12:31:37;;;;;;;5.97;5.37;;;16.90;82.90;;;;;;5026160;28;20468;-82
2021/08/28 12:34:18;;;;;;;5.77;4.80;;;16.90;84.40;;;;;;5048428;28;20490;-86
2021/08/28 12:36:46;;;;;;;5.57;5.07;;;16.90;84.40;;;;;;5009046;28;20481;-81
2021/08/28 12:39:16;;;;;;;6.20;5.00;;;16.80;86.20;;;;;;5020148;28;20518;-83
2021/08/28 12:41:43;;;;;;;4.77;4.37;;;16.80;83.60;;;;;;5033692;28;20574;-83
2021/08/28 12:44:11;;;;;;;5.53;5.13;;;16.70;84.60;;;;;;5033541;28;20483;-81
2021/08/28 12:46:40;;;;;;;8.20;7.50;;;16.70;83.70;;;;;;5038781;28;20537;-82
2021/08/28 12:49:09;;;;;;;5.77;5.27;;;16.90;86.00;;;;;;5025006;28;20842;-82
2021/08/28 12:51:37;;;;;;;4.90;4.40;;;17.10;83.60;;;;;;5019645;28;20828;-82